createdAt,value
2023-05-08T00:01:25.466Z,75.72
2023-05-08T00:03:52.895Z,75.73
2023-05-08T00:06:19.670Z,75.57
2023-05-08T00:08:46.318Z,75.91
2023-05-08T00:11:13.026Z,75.71
2023-05-08T00:13:41.339Z,75.73
2023-05-08T00:16:12.900Z,75.42
2023-05-08T00:18:40.180Z,75.90
2023-05-08T00:21:06.867Z,76.02
2023-05-08T00:23:34.154Z,75.85
2023-05-08T00:26:00.910Z,76.76
2023-05-08T00:28:27.643Z,77.12
2023-05-08T00:30:54.365Z,76.81
2023-05-08T00:33:21.083Z,76.55
2023-05-08T00:35:48.015Z,76.76
2023-05-08T00:38:14.644Z,76.89
2023-05-08T00:40:41.643Z,77.59
2023-05-08T00:43:08.192Z,77.27
2023-05-08T00:45:38.020Z,77.61
2023-05-08T00:48:05.126Z,77.21
2023-05-08T00:50:32.731Z,77.88
2023-05-08T00:53:02.865Z,78.63
2023-05-08T00:55:30.239Z,78.23
2023-05-08T00:57:58.087Z,78.24
2023-05-08T01:00:25.062Z,78.62
2023-05-08T01:02:52.077Z,78.48
2023-05-08T01:05:18.827Z,78.47
2023-05-08T01:07:45.717Z,78.20
2023-05-08T01:10:12.655Z,78.77
2023-05-08T01:12:58.234Z,78.74
2023-05-08T01:15:36.352Z,78.99
2023-05-08T01:18:18.931Z,79.79
2023-05-08T01:20:49.129Z,80.12
2023-05-08T01:23:34.678Z,80.51
2023-05-08T01:26:27.647Z,80.57
2023-05-08T01:29:03.054Z,80.86
2023-05-08T01:32:07.561Z,81.03
2023-05-08T01:34:38.827Z,80.99
2023-05-08T01:37:14.538Z,81.03
2023-05-08T01:39:51.135Z,80.70
2023-05-08T01:42:26.517Z,81.58
2023-05-08T01:45:03.432Z,80.76
2023-05-08T01:47:33.216Z,81.65
2023-05-08T01:50:07.305Z,80.79
2023-05-08T01:52:41.018Z,81.67
2023-05-08T01:55:14.209Z,81.54
2023-05-08T01:57:53.343Z,81.82
2023-05-08T02:00:22.934Z,81.57
2023-05-08T02:02:51.914Z,80.49
2023-05-08T02:05:20.980Z,81.06
2023-05-08T02:07:50.489Z,80.79
2023-05-08T02:10:18.511Z,81.02
2023-05-08T02:12:45.872Z,81.59
2023-05-08T02:15:16.186Z,81.35
2023-05-08T02:17:46.241Z,81.42
2023-05-08T02:20:15.328Z,81.38
2023-05-08T02:22:48.854Z,81.69
2023-05-08T02:25:17.227Z,81.92
2023-05-08T02:27:49.521Z,81.93
2023-05-08T02:30:19.339Z,81.82
2023-05-08T02:32:48.078Z,82.97
2023-05-08T02:35:19.933Z,83.12
2023-05-08T02:37:51.750Z,82.72
2023-05-08T02:40:20.583Z,82.55
2023-05-08T02:42:47.387Z,82.67
2023-05-08T02:45:14.605Z,82.38
2023-05-08T02:48:05.277Z,83.03
2023-05-08T02:50:40.405Z,83.42
2023-05-08T02:53:12.842Z,83.13
2023-05-08T02:56:00.427Z,84.30
2023-05-08T02:58:40.497Z,83.61
2023-05-08T03:01:48.342Z,84.05
2023-05-08T03:04:24.508Z,83.24
2023-05-08T03:06:54.919Z,83.54
2023-05-08T03:09:26.295Z,83.18
2023-05-08T03:12:00.917Z,83.86
2023-05-08T03:14:31.655Z,84.04
2023-05-08T03:17:01.037Z,84.93
2023-05-08T03:19:33.115Z,85.32
2023-05-08T03:22:01.935Z,84.84
2023-05-08T03:24:31.616Z,84.49
2023-05-08T03:26:59.294Z,84.60
2023-05-08T03:29:27.254Z,83.50
2023-05-08T03:31:54.806Z,83.68
2023-05-08T03:34:23.490Z,83.98
2023-05-08T03:36:50.913Z,83.90
2023-05-08T03:39:17.688Z,84.55
2023-05-08T03:41:45.558Z,83.98
2023-05-08T03:44:13.368Z,84.02
2023-05-08T03:46:42.486Z,84.76
2023-05-08T03:49:12.474Z,84.52
2023-05-08T03:51:40.380Z,84.18
2023-05-08T03:54:07.162Z,84.71
2023-05-08T03:56:34.397Z,85.34
2023-05-08T03:59:17.810Z,85.84
2023-05-08T04:01:59.260Z,86.67
2023-05-08T04:04:42.050Z,85.99
2023-05-08T04:07:32.060Z,86.18
2023-05-08T04:10:13.789Z,85.98
2023-05-08T04:12:51.976Z,86.48
2023-05-08T04:15:24.486Z,85.81
2023-05-08T04:17:55.542Z,86.02
2023-05-08T04:20:26.036Z,85.41
2023-05-08T04:22:54.676Z,85.72
2023-05-08T04:25:21.393Z,85.58
2023-05-08T04:27:51.360Z,85.70
2023-05-08T04:30:18.544Z,85.22
2023-05-08T04:32:46.963Z,84.87
2023-05-08T04:35:14.579Z,85.17
2023-05-08T04:37:43.609Z,84.79
2023-05-08T04:40:10.945Z,84.61
2023-05-08T04:42:39.873Z,84.25
2023-05-08T04:45:10.903Z,84.02
2023-05-08T04:47:37.780Z,83.89
2023-05-08T04:50:06.022Z,83.81
2023-05-08T04:52:33.819Z,82.94
2023-05-08T04:55:00.562Z,82.79
2023-05-08T04:57:27.828Z,82.35
2023-05-08T04:59:54.999Z,82.20
2023-05-08T05:02:21.632Z,81.99
2023-05-08T05:04:49.773Z,80.61
2023-05-08T05:07:17.431Z,80.56
2023-05-08T05:09:44.414Z,79.75
2023-05-08T05:12:13.494Z,79.37
2023-05-08T05:14:41.517Z,77.25
2023-05-08T05:17:09.405Z,75.56
2023-05-08T05:19:37.059Z,74.66
2023-05-08T05:22:03.862Z,72.19
2023-05-08T05:24:31.584Z,71.08
2023-05-08T05:26:58.639Z,70.73
2023-05-08T05:29:25.394Z,69.82
2023-05-08T05:31:52.167Z,67.77
2023-05-08T05:34:18.858Z,68.10
2023-05-08T05:36:45.428Z,67.12
2023-05-08T05:39:12.022Z,66.68
2023-05-08T05:41:38.728Z,64.90
2023-05-08T05:44:05.778Z,65.29
2023-05-08T05:46:32.745Z,64.24
2023-05-08T05:48:59.631Z,63.87
2023-05-08T05:51:30.275Z,62.16
2023-05-08T05:53:57.280Z,62.51
2023-05-08T05:56:25.021Z,62.36
2023-05-08T05:58:51.835Z,60.91
2023-05-08T06:01:18.984Z,60.90
2023-05-08T06:03:46.060Z,60.21
2023-05-08T06:06:13.266Z,60.49
2023-05-08T06:08:39.860Z,59.25
2023-05-08T06:11:06.621Z,58.86
2023-05-08T06:13:33.371Z,58.84
2023-05-08T06:16:00.168Z,57.94
2023-05-08T06:18:26.830Z,58.74
2023-05-08T06:20:59.995Z,57.98
2023-05-08T06:23:27.158Z,56.21
2023-05-08T06:25:54.585Z,56.42
2023-05-08T06:28:22.678Z,56.64
2023-05-08T06:30:49.506Z,56.72
2023-05-08T06:33:16.234Z,55.62
2023-05-08T06:35:49.213Z,55.98
2023-05-08T06:38:16.401Z,55.70
2023-05-08T06:40:47.941Z,55.06
2023-05-08T06:43:14.617Z,54.34
2023-05-08T06:45:43.931Z,54.32
2023-05-08T06:48:11.580Z,54.46
2023-05-08T06:50:39.471Z,53.15
2023-05-08T06:53:07.236Z,53.18
2023-05-08T06:55:36.119Z,53.52
2023-05-08T06:58:02.858Z,53.74
2023-05-08T07:00:29.600Z,51.45
2023-05-08T07:02:57.390Z,52.61
2023-05-08T07:05:24.114Z,51.26
2023-05-08T07:07:50.734Z,50.61
2023-05-08T07:10:19.987Z,51.39
2023-05-08T07:12:46.870Z,50.59
2023-05-08T07:15:25.214Z,49.00
2023-05-08T07:17:53.546Z,47.95
2023-05-08T07:20:21.656Z,48.54
2023-05-08T07:22:48.374Z,48.06
2023-05-08T07:25:15.112Z,48.08
2023-05-08T07:27:42.538Z,48.07
2023-05-08T07:30:09.621Z,46.92
2023-05-08T07:32:36.402Z,47.10
2023-05-08T07:35:03.791Z,46.71
2023-05-08T07:37:33.645Z,46.16
2023-05-08T07:40:00.253Z,45.27
2023-05-08T07:42:26.967Z,45.94
2023-05-08T07:44:55.208Z,45.75
2023-05-08T07:47:23.163Z,42.77
2023-05-08T07:49:49.875Z,41.32
2023-05-08T07:52:16.827Z,42.61
2023-05-08T07:54:44.142Z,40.66
2023-05-08T07:57:11.258Z,40.12
2023-05-08T07:59:38.055Z,40.60
2023-05-08T08:02:07.504Z,40.47
2023-05-08T08:04:36.786Z,39.39
2023-05-08T08:07:04.759Z,38.86
2023-05-08T08:09:32.352Z,38.86
2023-05-08T08:11:59.044Z,38.36
2023-05-08T08:14:25.623Z,38.48
2023-05-08T08:16:52.486Z,39.35
2023-05-08T08:19:19.252Z,38.30
2023-05-08T08:21:46.421Z,37.42
2023-05-08T08:24:13.835Z,38.73
2023-05-08T08:26:40.521Z,37.25
2023-05-08T08:29:07.166Z,36.40
2023-05-08T08:31:34.012Z,36.18
2023-05-08T08:34:04.656Z,36.94
2023-05-08T08:36:32.622Z,36.12
2023-05-08T08:39:00.292Z,36.95
2023-05-08T08:41:28.115Z,36.11
2023-05-08T08:43:57.756Z,36.84
2023-05-08T08:46:33.309Z,35.00
2023-05-08T08:49:03.785Z,35.11
2023-05-08T08:51:51.989Z,35.28
2023-05-08T08:54:23.890Z,35.24
2023-05-08T08:56:52.099Z,35.88
2023-05-08T08:59:19.333Z,36.24
2023-05-08T09:01:50.459Z,34.98
2023-05-08T09:04:17.408Z,34.17
2023-05-08T09:06:46.155Z,34.27
2023-05-08T09:09:16.534Z,35.01
2023-05-08T09:11:46.305Z,34.83
2023-05-08T09:14:13.259Z,34.68
2023-05-08T09:16:40.224Z,33.59
2023-05-08T09:19:08.105Z,34.24
2023-05-08T09:21:34.767Z,32.95
2023-05-08T09:24:04.936Z,33.71
2023-05-08T09:26:39.395Z,32.83
2023-05-08T09:29:22.757Z,33.63
2023-05-08T09:31:51.666Z,33.91
2023-05-08T09:34:28.101Z,34.05
2023-05-08T09:37:09.940Z,32.86
2023-05-08T09:39:36.727Z,33.00
2023-05-08T09:42:05.121Z,32.48
2023-05-08T09:44:51.922Z,33.09
2023-05-08T09:47:22.095Z,32.64
2023-05-08T09:50:05.159Z,31.73
2023-05-08T09:52:33.219Z,30.82
2023-05-08T09:55:02.221Z,31.31
2023-05-08T09:57:30.404Z,31.10
2023-05-08T10:00:14.218Z,31.05
2023-05-08T10:02:54.104Z,31.38
2023-05-08T10:05:24.955Z,30.23
2023-05-08T10:07:51.802Z,31.62
2023-05-08T10:10:28.881Z,30.92
2023-05-08T10:12:57.074Z,31.75
2023-05-08T10:15:27.443Z,31.19
2023-05-08T10:18:03.327Z,31.32
2023-05-08T10:20:31.765Z,32.74
2023-05-08T10:23:01.185Z,31.86
2023-05-08T10:25:33.196Z,31.01
2023-05-08T10:28:10.733Z,31.36
2023-05-08T10:30:43.259Z,31.17
2023-05-08T10:33:14.845Z,30.69
2023-05-08T10:35:43.691Z,29.64
2023-05-08T10:38:11.783Z,30.50
2023-05-08T10:40:39.271Z,29.14
2023-05-08T10:43:07.385Z,29.05
2023-05-08T10:45:34.978Z,30.12
2023-05-08T10:48:07.717Z,30.27
2023-05-08T10:51:08.373Z,29.23
2023-05-08T10:53:44.197Z,29.04
2023-05-08T10:56:11.954Z,29.85
2023-05-08T10:58:40.417Z,28.26
2023-05-08T11:01:07.957Z,29.07
2023-05-08T11:03:50.823Z,29.27
2023-05-08T11:06:38.273Z,29.19
2023-05-08T11:09:05.968Z,28.66
2023-05-08T11:11:39.389Z,28.49
2023-05-08T11:14:07.235Z,29.16
2023-05-08T11:16:59.981Z,29.80
2023-05-08T11:19:27.955Z,29.19
2023-05-08T11:22:27.078Z,29.27
2023-05-08T11:25:40.263Z,29.38
2023-05-08T11:28:06.956Z,28.89
2023-05-08T11:30:34.702Z,29.46
2023-05-08T11:33:05.522Z,28.94
2023-05-08T11:36:06.149Z,29.90
2023-05-08T11:38:36.222Z,29.97
2023-05-08T11:41:06.816Z,29.81
2023-05-08T11:43:33.487Z,29.70
2023-05-08T11:46:04.307Z,29.18
2023-05-08T11:48:32.514Z,29.97
2023-05-08T11:51:03.355Z,30.49
2023-05-08T11:53:31.404Z,29.69
2023-05-08T11:55:58.752Z,29.60
2023-05-08T11:58:26.952Z,30.57
2023-05-08T12:00:54.779Z,30.89
2023-05-08T12:03:23.237Z,29.96
2023-05-08T12:05:50.714Z,29.37
2023-05-08T12:08:18.301Z,28.46
2023-05-08T12:10:58.284Z,29.50
2023-05-08T12:13:31.158Z,29.13
2023-05-08T12:16:00.440Z,30.34
2023-05-08T12:18:28.844Z,29.39
2023-05-08T12:21:00.626Z,30.11
2023-05-08T12:23:32.239Z,30.07
2023-05-08T12:26:00.563Z,28.57
2023-05-08T12:28:28.825Z,29.75
2023-05-08T12:30:56.206Z,28.61
2023-05-08T12:33:23.523Z,28.64
2023-05-08T12:35:52.242Z,28.72
2023-05-08T12:38:18.892Z,28.09
2023-05-08T12:40:53.087Z,28.74
2023-05-08T12:43:19.780Z,27.87
2023-05-08T12:45:51.933Z,28.48
2023-05-08T12:48:19.334Z,28.09
2023-05-08T12:50:46.379Z,28.28
2023-05-08T12:53:15.254Z,28.73
2023-05-08T12:55:54.054Z,27.81
2023-05-08T12:58:25.271Z,28.21
2023-05-08T13:00:54.731Z,27.60
2023-05-08T13:03:26.537Z,27.98
2023-05-08T13:05:55.580Z,28.27
2023-05-08T13:08:30.938Z,28.65
2023-05-08T13:10:57.628Z,29.14
2023-05-08T13:13:27.620Z,27.54
2023-05-08T13:15:55.488Z,26.80
2023-05-08T13:18:25.529Z,27.82
2023-05-08T13:20:52.284Z,27.06
2023-05-08T13:23:19.167Z,27.27
2023-05-08T13:25:47.453Z,28.04
2023-05-08T13:28:17.260Z,26.67
2023-05-08T13:30:44.497Z,26.77
2023-05-08T13:33:11.157Z,27.96
2023-05-08T13:35:37.921Z,27.73
2023-05-08T13:38:04.536Z,28.07
2023-05-08T13:40:31.411Z,27.92
2023-05-08T13:42:59.087Z,27.86
2023-05-08T13:45:28.221Z,27.44
2023-05-08T13:47:55.138Z,28.25
2023-05-08T13:50:22.467Z,26.74
2023-05-08T13:52:52.307Z,27.04
2023-05-08T13:55:22.876Z,27.67
2023-05-08T13:57:50.025Z,27.60
2023-05-08T14:00:17.406Z,27.92
2023-05-08T14:02:48.316Z,27.51
2023-05-08T14:05:17.362Z,27.86
2023-05-08T14:07:47.097Z,27.86
2023-05-08T14:10:14.043Z,28.33
2023-05-08T14:12:41.238Z,27.87
2023-05-08T14:15:08.678Z,27.42
2023-05-08T14:17:35.507Z,27.65
2023-05-08T14:20:02.363Z,28.41
2023-05-08T14:22:29.982Z,27.87
2023-05-08T14:24:56.560Z,28.21
2023-05-08T14:27:23.340Z,28.14
2023-05-08T14:29:50.079Z,27.76
2023-05-08T14:32:16.642Z,27.77
2023-05-08T14:34:44.286Z,27.41
2023-05-08T14:37:15.136Z,27.71
2023-05-08T14:39:41.736Z,27.98
2023-05-08T14:44:38.127Z,27.49
2023-05-08T14:47:05.837Z,27.42
2023-05-08T14:52:02.563Z,28.79
2023-05-08T14:54:29.274Z,28.30
2023-05-08T14:56:55.988Z,28.44
2023-05-08T14:59:22.662Z,28.67
2023-05-08T15:01:49.319Z,27.88
2023-05-08T15:04:17.692Z,28.33
2023-05-08T15:06:45.819Z,28.28
2023-05-08T15:09:12.536Z,28.80
2023-05-08T15:11:39.438Z,28.24
2023-05-08T15:14:06.205Z,27.83
2023-05-08T15:16:32.963Z,28.25
2023-05-08T15:18:59.671Z,28.17
2023-05-08T15:21:26.873Z,27.42
2023-05-08T15:23:55.440Z,27.67
2023-05-08T15:26:22.734Z,27.64
2023-05-08T15:28:49.555Z,27.59
2023-05-08T15:31:16.444Z,27.09
2023-05-08T15:33:45.079Z,27.26
2023-05-08T15:36:15.547Z,27.56
2023-05-08T15:38:46.116Z,26.80
2023-05-08T15:41:15.448Z,28.05
2023-05-08T15:43:45.432Z,28.22
2023-05-08T15:46:12.309Z,28.38
2023-05-08T15:48:40.096Z,28.42
2023-05-08T15:51:07.166Z,29.17
2023-05-08T15:53:34.782Z,27.79
2023-05-08T15:56:01.392Z,28.17
2023-05-08T15:58:28.076Z,27.87
2023-05-08T16:00:54.779Z,27.74
2023-05-08T16:03:21.709Z,27.83
2023-05-08T16:05:48.535Z,28.16
2023-05-08T16:08:16.408Z,28.17
2023-05-08T16:10:45.349Z,28.19
2023-05-08T16:13:12.046Z,27.25
2023-05-08T16:15:38.856Z,27.36
2023-05-08T16:18:06.279Z,26.79
2023-05-08T16:20:34.322Z,27.12
2023-05-08T16:23:02.723Z,27.03
2023-05-08T16:25:29.432Z,27.07
2023-05-08T16:27:56.328Z,27.47
2023-05-08T16:30:22.994Z,27.63
2023-05-08T16:32:49.605Z,27.56
2023-05-08T16:35:16.554Z,27.00
2023-05-08T16:37:45.360Z,27.33
2023-05-08T16:40:12.341Z,27.65
2023-05-08T16:42:39.026Z,27.72
2023-05-08T16:45:06.760Z,27.95
2023-05-08T16:47:34.296Z,27.99
2023-05-08T16:50:01.220Z,27.93
2023-05-08T16:52:28.551Z,27.72
2023-05-08T16:54:55.225Z,27.69
2023-05-08T16:57:21.980Z,27.89
2023-05-08T16:59:48.578Z,27.89
2023-05-08T17:02:19.090Z,28.08
2023-05-08T17:04:47.505Z,28.41
2023-05-08T17:07:15.947Z,28.34
2023-05-08T17:09:49.213Z,28.64
2023-05-08T17:12:15.939Z,28.30
2023-05-08T17:14:42.755Z,28.57
2023-05-08T17:17:11.325Z,28.42
2023-05-08T17:19:37.957Z,28.87
2023-05-08T17:22:04.802Z,28.73
2023-05-08T17:24:32.434Z,28.85
2023-05-08T17:26:59.466Z,29.25
2023-05-08T17:29:26.167Z,29.44
2023-05-08T17:31:53.869Z,29.86
2023-05-08T17:34:22.713Z,30.13
2023-05-08T17:36:49.633Z,30.63
2023-05-08T17:39:19.785Z,31.19
2023-05-08T17:41:46.936Z,31.30
2023-05-08T17:44:13.635Z,31.51
2023-05-08T17:46:40.340Z,31.85
2023-05-08T17:49:08.155Z,31.95
2023-05-08T17:51:34.866Z,32.28
2023-05-08T17:54:01.540Z,32.38
2023-05-08T17:56:29.019Z,32.99
2023-05-08T17:58:57.133Z,33.40
2023-05-08T18:01:24.851Z,33.91
2023-05-08T18:03:53.541Z,34.19
2023-05-08T18:06:20.436Z,34.61
2023-05-08T18:08:47.771Z,35.13
2023-05-08T18:11:24.477Z,35.52
2023-05-08T18:13:53.246Z,36.01
2023-05-08T18:16:21.208Z,36.31
2023-05-08T18:18:49.575Z,36.96
2023-05-08T18:21:16.210Z,37.24
2023-05-08T18:23:45.793Z,37.94
2023-05-08T18:26:16.335Z,38.28
2023-05-08T18:28:43.903Z,38.21
2023-05-08T18:31:11.754Z,38.42
2023-05-08T18:33:38.440Z,38.66
2023-05-08T18:36:07.018Z,39.13
2023-05-08T18:38:34.584Z,39.51
2023-05-08T18:41:02.769Z,39.81
2023-05-08T18:43:29.422Z,40.07
2023-05-08T18:45:56.183Z,40.78
2023-05-08T18:48:22.835Z,41.13
2023-05-08T18:50:49.406Z,41.47
2023-05-08T18:53:16.087Z,42.17
2023-05-08T18:55:42.755Z,42.27
2023-05-08T18:58:09.574Z,43.07
2023-05-08T19:00:36.471Z,43.47
2023-05-08T19:03:03.384Z,44.10
2023-05-08T19:05:30.078Z,44.48
2023-05-08T19:07:56.676Z,44.90
2023-05-08T19:10:23.404Z,45.57
2023-05-08T19:12:50.809Z,45.82
2023-05-08T19:15:17.625Z,46.25
2023-05-08T19:17:45.342Z,46.92
2023-05-08T19:20:13.103Z,47.39
2023-05-08T19:22:40.058Z,48.07
2023-05-08T19:25:07.022Z,48.22
2023-05-08T19:27:33.674Z,48.64
2023-05-08T19:30:00.303Z,49.17
2023-05-08T19:32:27.720Z,49.42
2023-05-08T19:34:58.048Z,49.82
2023-05-08T19:37:25.149Z,50.34
2023-05-08T19:39:51.893Z,50.44
2023-05-08T19:42:18.480Z,50.78
2023-05-08T19:44:45.244Z,51.02
2023-05-08T19:47:15.232Z,51.47
2023-05-08T19:49:41.832Z,51.84
2023-05-08T19:52:08.626Z,52.21
2023-05-08T19:54:35.340Z,52.30
2023-05-08T19:57:02.139Z,52.55
2023-05-08T19:59:28.835Z,52.96
2023-05-08T20:01:55.588Z,53.10
2023-05-08T20:04:22.318Z,53.22
2023-05-08T20:06:48.929Z,53.78
2023-05-08T20:09:15.648Z,53.76
2023-05-08T20:11:42.304Z,54.07
2023-05-08T20:14:08.905Z,53.96
2023-05-08T20:16:35.711Z,54.51
2023-05-08T20:19:02.290Z,55.16
2023-05-08T20:21:32.475Z,54.78
2023-05-08T20:24:02.429Z,55.17
2023-05-08T20:26:29.615Z,55.78
2023-05-08T20:28:56.978Z,55.83
2023-05-08T20:31:25.780Z,56.55
2023-05-08T20:33:52.644Z,56.11
2023-05-08T20:36:19.500Z,56.39
2023-05-08T20:38:48.252Z,56.60
2023-05-08T20:41:15.218Z,56.37
2023-05-08T20:43:41.929Z,57.04
2023-05-08T20:46:08.685Z,56.50
2023-05-08T20:48:36.741Z,56.42
2023-05-08T20:51:03.389Z,57.39
2023-05-08T20:53:30.666Z,59.12
2023-05-08T20:56:01.790Z,59.68
2023-05-08T20:58:28.548Z,59.54
2023-05-08T21:00:55.419Z,60.01
2023-05-08T21:03:22.559Z,60.06
2023-05-08T21:05:49.387Z,59.57
2023-05-08T21:08:16.123Z,59.19
2023-05-08T21:10:42.845Z,59.36
2023-05-08T21:13:09.914Z,58.96
2023-05-08T21:15:36.625Z,58.70
2023-05-08T21:18:03.358Z,58.97
2023-05-08T21:20:32.523Z,58.32
2023-05-08T21:22:59.144Z,58.11
2023-05-08T21:25:25.908Z,58.31
2023-05-08T21:27:55.178Z,57.61
2023-05-08T21:30:22.022Z,57.50
2023-05-08T21:32:48.725Z,57.20
2023-05-08T21:35:15.895Z,57.37
2023-05-08T21:37:43.059Z,57.23
2023-05-08T21:40:10.328Z,57.41
2023-05-08T21:42:39.286Z,57.33
2023-05-08T21:45:06.391Z,57.01
2023-05-08T21:47:33.082Z,56.86
2023-05-08T21:49:59.711Z,57.20
2023-05-08T21:52:26.643Z,57.30
2023-05-08T21:54:53.224Z,57.21
2023-05-08T21:57:19.900Z,57.78
2023-05-08T21:59:46.832Z,57.83
2023-05-08T22:02:15.798Z,58.30
2023-05-08T22:04:43.170Z,58.44
2023-05-08T22:07:09.817Z,58.20
2023-05-08T22:09:36.477Z,58.62
2023-05-08T22:12:03.085Z,59.44
2023-05-08T22:14:30.783Z,58.49
2023-05-08T22:16:57.365Z,59.01
2023-05-08T22:19:23.981Z,59.15
2023-05-08T22:21:50.572Z,58.71
2023-05-08T22:24:19.085Z,58.49
2023-05-08T22:26:46.036Z,58.98
2023-05-08T22:29:12.599Z,58.85
2023-05-08T22:31:39.310Z,58.59
2023-05-08T22:34:06.058Z,58.48
2023-05-08T22:36:32.724Z,58.83
2023-05-08T22:39:00.977Z,58.62
2023-05-08T22:41:30.167Z,58.75
2023-05-08T22:43:56.903Z,58.95
2023-05-08T22:46:24.423Z,58.78
2023-05-08T22:48:52.796Z,58.81
2023-05-08T22:51:19.492Z,59.17
2023-05-08T22:53:46.466Z,58.67
2023-05-08T22:56:13.538Z,58.89
2023-05-08T22:58:40.165Z,59.10
2023-05-08T23:01:06.848Z,59.34
2023-05-08T23:03:33.557Z,59.16
2023-05-08T23:06:00.120Z,59.72
2023-05-08T23:08:26.687Z,59.28
2023-05-08T23:10:53.344Z,59.37
2023-05-08T23:13:20.001Z,59.49
2023-05-08T23:15:46.627Z,59.83
2023-05-08T23:18:13.663Z,59.46
2023-05-08T23:20:40.284Z,59.53
2023-05-08T23:23:07.383Z,59.98
2023-05-08T23:25:34.001Z,60.06
2023-05-08T23:28:00.647Z,60.04
2023-05-08T23:30:27.335Z,60.06
2023-05-08T23:32:54.038Z,60.45
2023-05-08T23:35:20.787Z,60.81
2023-05-08T23:37:47.410Z,60.34
2023-05-08T23:40:17.495Z,60.74
2023-05-08T23:42:45.083Z,60.63
2023-05-08T23:45:12.215Z,60.40
2023-05-08T23:47:39.284Z,60.77
2023-05-08T23:50:08.513Z,60.70
2023-05-08T23:52:35.237Z,61.00
2023-05-08T23:55:03.002Z,60.82
2023-05-08T23:57:29.587Z,61.80
2023-05-08T23:59:56.191Z,61.97
